Time;durP1;ratioP1;P1;durP2;ratioP2;P2;SDS_P1;SDS_P2;PMS_P1;PMS_P2;Temp;Humidity;BMP_temperature;BMP_pressure;BME280_temperature;BME280_humidity;BME280_pressure;Samples;Min_cycle;Max_cycle;Signal;HPM_P1;HPM_P2
2023/04/15 00:01:10;;;;;;;;;;;7.50;99.80;;;;;;5018822;28;19930;-80
2023/04/15 00:03:37;;;;;;;;;;;7.50;99.90;;;;;;5004443;28;20496;-79
2023/04/15 00:06:05;;;;;;;;;;;7.50;99.90;;;;;;5013169;28;19936;-80
2023/04/15 00:08:33;;;;;;;;;;;7.50;99.90;;;;;;4998016;28;19934;-80
2023/04/15 00:11:01;;;;;;;;;;;7.50;99.90;;;;;;5020297;28;20040;-80
2023/04/15 00:13:28;;;;;;;;;;;7.50;99.90;;;;;;5016807;28;19931;-80
2023/04/15 00:15:55;;;;;;;;;;;7.50;99.90;;;;;;5049065;28;19936;-79
2023/04/15 00:18:24;;;;;;;;;;;7.50;99.90;;;;;;5029204;28;19958;-79
2023/04/15 00:20:51;;;;;;;;;;;7.50;99.90;;;;;;5021453;28;19979;-80
2023/04/15 00:23:18;;;;;;;;;;;7.50;99.90;;;;;;5004123;28;19952;-80
2023/04/15 00:25:45;;;;;;;;;;;7.50;99.90;;;;;;5017035;28;20529;-80
2023/04/15 00:28:12;;;;;;;;;;;7.50;99.90;;;;;;5027215;28;19987;-80
2023/04/15 00:30:39;;;;;;;;;;;7.50;99.90;;;;;;5003080;28;20400;-80
2023/04/15 00:33:06;;;;;;;;;;;7.50;99.90;;;;;;5022121;28;19930;-80
2023/04/15 00:35:35;;;;;;;;;;;7.50;99.90;;;;;;5029435;28;19950;-81
2023/04/15 00:38:03;;;;;;;;;;;7.50;99.90;;;;;;5034095;28;19934;-80
2023/04/15 00:40:30;;;;;;;;;;;7.50;99.90;;;;;;5010477;28;20008;-80
2023/04/15 00:42:57;;;;;;;;;;;7.50;99.90;;;;;;5014356;28;19984;-80
2023/04/15 00:45:26;;;;;;;;;;;7.50;99.90;;;;;;5047990;28;19932;-81
2023/04/15 00:47:54;;;;;;;;;;;7.40;99.90;;;;;;5011017;28;19930;-80
2023/04/15 00:50:21;;;;;;;;;;;7.40;99.90;;;;;;5017136;28;19929;-80
2023/04/15 00:52:50;;;;;;;;;;;7.30;99.90;;;;;;5007052;28;19930;-80
2023/04/15 00:55:18;;;;;;;;;;;7.30;99.90;;;;;;5004982;28;20029;-80
2023/04/15 00:57:45;;;;;;;;;;;7.20;99.90;;;;;;5003975;28;19929;-80
2023/04/15 01:00:12;;;;;;;;;;;7.20;99.90;;;;;;5019295;28;19964;-79
2023/04/15 01:02:39;;;;;;;;;;;7.20;99.90;;;;;;5012906;28;19933;-79
2023/04/15 01:05:06;;;;;;;;;;;7.20;99.90;;;;;;5010161;28;19964;-80
2023/04/15 01:07:33;;;;;;;;;;;7.20;99.90;;;;;;5000342;28;19988;-81
2023/04/15 01:10:02;;;;;;;;;;;7.20;99.90;;;;;;5040004;28;19973;-81
2023/04/15 01:12:29;;;;;;;;;;;7.10;99.90;;;;;;5004272;28;19929;-81
2023/04/15 01:14:56;;;;;;;;;;;7.00;99.90;;;;;;5027982;28;19999;-81
2023/04/15 01:17:24;;;;;;;;;;;7.00;99.90;;;;;;5010414;28;19930;-81
2023/04/15 01:19:51;;;;;;;;;;;6.90;99.90;;;;;;5017399;28;19949;-81
2023/04/15 01:22:18;;;;;;;;;;;6.80;99.90;;;;;;5001068;28;19945;-81
2023/04/15 01:24:49;;;;;;;;;;;6.80;99.90;;;;;;5017282;28;19929;-80
2023/04/15 01:27:18;;;;;;;;;;;6.80;99.90;;;;;;5016060;28;19929;-86
2023/04/15 01:29:45;;;;;;;;;;;6.80;99.90;;;;;;5040132;28;19929;-86
2023/04/15 01:32:12;;;;;;;;;;;7.20;99.90;;;;;;5000555;28;19980;-83
2023/04/15 01:34:39;;;;;;;;;;;6.80;99.90;;;;;;5007680;28;19925;-84
2023/04/15 01:37:06;;;;;;;;;;;6.70;99.90;;;;;;5004379;28;19929;-83
2023/04/15 01:39:33;;;;;;;;;;;6.70;99.90;;;;;;5016930;28;19933;-84
2023/04/15 01:42:00;;;;;;;;;;;6.70;99.90;;;;;;5005285;28;19913;-82
2023/04/15 01:44:28;;;;;;;;;;;6.60;99.90;;;;;;5017806;28;19952;-81
2023/04/15 01:46:55;;;;;;;;;;;6.60;99.90;;;;;;5018674;28;19929;-82
2023/04/15 01:49:22;;;;;;;;;;;6.60;99.90;;;;;;5009885;28;20365;-82
2023/04/15 01:51:49;;;;;;;;;;;6.50;99.90;;;;;;5010224;28;20337;-83
2023/04/15 01:54:16;;;;;;;;;;;6.50;99.90;;;;;;5012746;28;20028;-82
2023/04/15 01:56:44;;;;;;;;;;;6.50;99.90;;;;;;5016101;28;20102;-82
2023/04/15 01:59:11;;;;;;;;;;;6.50;99.90;;;;;;5013607;28;19926;-84
2023/04/15 02:01:40;;;;;;;;;;;6.40;99.90;;;;;;5015051;28;19975;-83
2023/04/15 02:07:40;;;;;;;;;;;6.40;99.90;;;;;;5021789;28;19924;-80
2023/04/15 02:10:12;;;;;;;;;;;6.40;99.90;;;;;;5012881;28;19930;-80
2023/04/15 02:12:39;;;;;;;;;;;6.40;99.90;;;;;;5022468;28;19972;-81
2023/04/15 02:15:07;;;;;;;;;;;6.40;99.90;;;;;;5008470;28;20020;-81
2023/04/15 02:17:36;;;;;;;;;;;6.40;99.90;;;;;;5000255;28;19934;-81
2023/04/15 02:20:04;;;;;;;;;;;6.40;99.90;;;;;;4993161;28;19937;-80
2023/04/15 02:22:32;;;;;;;;;;;6.40;99.90;;;;;;5013083;28;19984;-80
2023/04/15 02:24:58;;;;;;;;;;;6.40;99.90;;;;;;5012349;28;19925;-80
2023/04/15 02:27:27;;;;;;;;;;;6.40;99.90;;;;;;4993349;28;19938;-82
2023/04/15 02:29:54;;;;;;;;;;;6.40;99.90;;;;;;5014032;28;19940;-81
2023/04/15 02:32:23;;;;;;;;;;;6.40;99.90;;;;;;5018509;28;20408;-81
2023/04/15 02:34:51;;;;;;;;;;;6.30;99.90;;;;;;5007407;28;19992;-81
2023/04/15 02:37:19;;;;;;;;;;;6.30;99.90;;;;;;5012678;28;19996;-81
2023/04/15 02:39:47;;;;;;;;;;;6.30;99.90;;;;;;5016162;28;19929;-81
2023/04/15 02:42:15;;;;;;;;;;;6.30;99.90;;;;;;5018127;28;19994;-81
2023/04/15 02:44:42;;;;;;;;;;;6.30;99.90;;;;;;5066384;28;19924;-82
2023/04/15 02:47:10;;;;;;;;;;;6.30;99.90;;;;;;5008578;28;19957;-82
2023/04/15 02:49:37;;;;;;;;;;;6.30;99.90;;;;;;5013264;28;19929;-80
2023/04/15 02:52:06;;;;;;;;;;;6.20;99.90;;;;;;5006951;28;19926;-82
2023/04/15 02:54:33;;;;;;;;;;;6.30;99.90;;;;;;5008360;28;19930;-81
2023/04/15 02:57:00;;;;;;;;;;;6.30;99.90;;;;;;5031849;28;19926;-82
2023/04/15 02:59:28;;;;;;;;;;;6.30;99.90;;;;;;5010797;28;19936;-81
2023/04/15 03:01:59;;;;;;;;;;;6.30;99.90;;;;;;5010830;28;19936;-81
2023/04/15 03:04:28;;;;;;;;;;;6.30;99.90;;;;;;5000178;28;19933;-81
2023/04/15 03:06:56;;;;;;;;;;;6.30;99.90;;;;;;4999686;28;19929;-81
2023/04/15 03:09:25;;;;;;;;;;;6.30;99.90;;;;;;5043445;28;19980;-80
2023/04/15 03:11:53;;;;;;;;;;;6.20;99.90;;;;;;4999068;28;19930;-82
2023/04/15 03:14:21;;;;;;;;;;;6.30;99.90;;;;;;5006878;28;19926;-80
2023/04/15 03:16:49;;;;;;;;;;;6.30;99.90;;;;;;5009646;28;19925;-81
2023/04/15 03:19:17;;;;;;;;;;;6.20;99.90;;;;;;5025646;28;19933;-81
2023/04/15 03:21:44;;;;;;;;;;;6.20;99.90;;;;;;5012315;28;20349;-82
2023/04/15 03:24:11;;;;;;;;;;;6.20;99.90;;;;;;5012026;28;20415;-82
2023/04/15 03:26:41;;;;;;;;;;;6.20;99.90;;;;;;4995031;28;19952;-82
2023/04/15 03:29:12;;;;;;;;;;;6.20;99.90;;;;;;5016486;28;19929;-81
2023/04/15 03:31:40;;;;;;;;;;;6.20;99.90;;;;;;4999458;28;20045;-83
2023/04/15 03:34:07;;;;;;;;;;;6.10;99.90;;;;;;5009017;28;19925;-81
2023/04/15 03:36:34;;;;;;;;;;;6.10;99.90;;;;;;5001490;28;20681;-83
2023/04/15 03:39:02;;;;;;;;;;;6.10;99.90;;;;;;5018689;28;20319;-82
2023/04/15 03:41:28;;;;;;;;;;;6.00;99.90;;;;;;5013219;28;19933;-82
2023/04/15 03:43:57;;;;;;;;;;;6.00;99.90;;;;;;5016186;28;19933;-82
2023/04/15 03:46:23;;;;;;;;;;;6.00;99.90;;;;;;5017359;28;19937;-82
2023/04/15 03:48:50;;;;;;;;;;;6.00;99.90;;;;;;5018727;28;19929;-82
2023/04/15 03:51:17;;;;;;;;;;;6.00;99.90;;;;;;5010991;28;19940;-83
2023/04/15 03:53:44;;;;;;;;;;;6.00;99.90;;;;;;5013394;28;19933;-82
2023/04/15 03:56:11;;;;;;;;;;;6.00;99.90;;;;;;5015115;28;19930;-82
2023/04/15 03:58:38;;;;;;;;;;;6.00;99.90;;;;;;5011651;28;19929;-82
2023/04/15 04:01:06;;;;;;;;;;;6.00;99.90;;;;;;5023714;28;19980;-83
2023/04/15 04:03:33;;;;;;;;;;;5.90;99.90;;;;;;5008056;28;19930;-82
2023/04/15 04:06:00;;;;;;;;;;;5.90;99.90;;;;;;5014285;28;20269;-82
2023/04/15 04:08:27;;;;;;;;;;;5.90;99.90;;;;;;5023027;28;19929;-84
2023/04/15 04:10:53;;;;;;;;;;;5.90;99.90;;;;;;5007891;28;20005;-83
2023/04/15 04:13:20;;;;;;;;;;;5.90;99.90;;;;;;5029167;28;19934;-82
2023/04/15 04:15:47;;;;;;;;;;;5.80;99.90;;;;;;5007274;28;19926;-82
2023/04/15 04:18:15;;;;;;;;;;;5.90;99.90;;;;;;5009034;28;19976;-82
2023/04/15 04:20:42;;;;;;;;;;;5.80;99.90;;;;;;5021662;28;20635;-83
2023/04/15 04:23:09;;;;;;;;;;;5.90;99.90;;;;;;4994196;28;20493;-81
2023/04/15 04:25:36;;;;;;;;;;;5.80;99.90;;;;;;5043501;28;19984;-82
2023/04/15 04:28:03;;;;;;;;;;;5.90;99.90;;;;;;5011011;28;19936;-81
2023/04/15 04:30:30;;;;;;;;;;;5.90;99.90;;;;;;5001929;28;19926;-82
2023/04/15 04:32:57;;;;;;;;;;;5.90;99.90;;;;;;5019934;28;19949;-82
2023/04/15 04:35:26;;;;;;;;;;;5.90;99.90;;;;;;5000263;28;19926;-82
2023/04/15 04:37:53;;;;;;;;;;;5.90;99.90;;;;;;5011626;28;19953;-82
2023/04/15 04:40:20;;;;;;;;;;;5.90;99.90;;;;;;4997491;28;20032;-82
2023/04/15 04:42:47;;;;;;;;;;;5.90;99.90;;;;;;5012391;28;19936;-82
2023/04/15 04:45:14;;;;;;;;;;;5.90;99.90;;;;;;5060670;28;19979;-82
2023/04/15 04:47:41;;;;;;;;;;;5.80;99.90;;;;;;5011100;28;19926;-80
2023/04/15 04:50:09;;;;;;;;;;;5.80;99.90;;;;;;5011029;28;19984;-82
2023/04/15 04:52:37;;;;;;;;;;;5.80;99.90;;;;;;5005648;28;20381;-82
2023/04/15 04:55:04;;;;;;;;;;;5.80;99.90;;;;;;5012708;28;19929;-82
2023/04/15 04:57:31;;;;;;;;;;;5.80;99.90;;;;;;5010274;28;19940;-82
2023/04/15 04:59:58;;;;;;;;;;;5.90;99.90;;;;;;5008662;28;19925;-81
2023/04/15 05:02:26;;;;;;;;;;;5.90;99.90;;;;;;5012358;28;19925;-81
2023/04/15 05:04:54;;;;;;;;;;;5.90;99.90;;;;;;5012737;28;19926;-80
2023/04/15 05:07:21;;;;;;;;;;;5.90;99.90;;;;;;4998181;28;19961;-80
2023/04/15 05:09:49;;;;;;;;;;;6.00;99.90;;;;;;5011209;28;20275;-80
2023/04/15 05:12:17;;;;;;;;;;;6.00;99.90;;;;;;5013787;28;19934;-80
2023/04/15 05:14:45;;;;;;;;;;;6.10;99.90;;;;;;5023487;28;19952;-80
2023/04/15 05:17:12;;;;;;;;;;;6.10;99.90;;;;;;5021299;28;19936;-81
2023/04/15 05:19:39;;;;;;;;;;;6.10;99.90;;;;;;5005388;28;20493;-81
2023/04/15 05:22:06;;;;;;;;;;;6.20;99.90;;;;;;5013354;28;19957;-81
2023/04/15 05:24:33;;;;;;;;;;;6.30;99.90;;;;;;5009463;28;19913;-81
2023/04/15 05:27:01;;;;;;;;;;;6.30;99.90;;;;;;5001760;28;19934;-81
2023/04/15 05:29:28;;;;;;;;;;;6.40;99.90;;;;;;5000382;28;19929;-81
2023/04/15 05:31:55;;;;;;;;;;;6.50;99.90;;;;;;5012931;28;20438;-80
2023/04/15 05:34:22;;;;;;;;;;;6.60;99.90;;;;;;5002961;28;20470;-80
2023/04/15 05:36:49;;;;;;;;;;;6.70;99.90;;;;;;5011036;28;19972;-79
2023/04/15 05:39:16;;;;;;;;;;;6.90;99.90;;;;;;5015539;28;20019;-77
2023/04/15 05:41:43;;;;;;;;;;;7.40;99.90;;;;;;5032019;28;19983;-78
2023/04/15 05:44:11;;;;;;;;;;;8.00;99.90;;;;;;5031826;28;19932;-77
2023/04/15 05:46:38;;;;;;;;;;;8.80;99.90;;;;;;5015947;28;19991;-79
2023/04/15 05:49:05;;;;;;;;;;;9.60;99.90;;;;;;5014695;28;19937;-79
2023/04/15 05:51:32;;;;;;;;;;;10.60;99.90;;;;;;5008953;28;19930;-81
2023/04/15 05:53:59;;;;;;;;;;;11.30;99.90;;;;;;5015869;28;19987;-79
2023/04/15 05:56:26;;;;;;;;;;;12.00;99.90;;;;;;5015045;28;19933;-80
2023/04/15 05:58:53;;;;;;;;;;;12.60;99.90;;;;;;5015383;28;19973;-79
2023/04/15 06:01:22;;;;;;;;;;;13.20;99.90;;;;;;5001840;28;20321;-79
2023/04/15 06:03:50;;;;;;;;;;;14.00;99.90;;;;;;5021770;28;19925;-78
2023/04/15 06:06:17;;;;;;;;;;;14.50;99.90;;;;;;5010775;28;19980;-79
2023/04/15 06:08:44;;;;;;;;;;;14.70;99.90;;;;;;5011777;28;19984;-79
2023/04/15 06:11:11;;;;;;;;;;;14.90;99.90;;;;;;5003648;28;19984;-80
2023/04/15 06:13:37;;;;;;;;;;;15.00;99.90;;;;;;5022999;28;19929;-79
2023/04/15 06:16:08;;;;;;;;;;;15.20;99.90;;;;;;5036160;28;20360;-81
2023/04/15 06:18:36;;;;;;;;;;;15.10;99.90;;;;;;5006047;28;19930;-81
2023/04/15 06:21:03;;;;;;;;;;;14.60;99.90;;;;;;5026699;28;19930;-83
2023/04/15 06:23:35;;;;;;;;;;;14.40;99.90;;;;;;5017764;28;19925;-82
2023/04/15 06:26:02;;;;;;;;;;;14.60;99.90;;;;;;5018321;28;19929;-83
2023/04/15 06:28:29;;;;;;;;;;;14.60;99.90;;;;;;5019019;28;19997;-80
2023/04/15 06:30:56;;;;;;;;;;;15.10;99.90;;;;;;5015816;28;19932;-79
2023/04/15 06:33:23;;;;;;;;;;;15.40;99.90;;;;;;5017506;28;19929;-80
2023/04/15 06:35:51;;;;;;;;;;;15.70;99.90;;;;;;5016917;28;19925;-79
2023/04/15 06:38:20;;;;;;;;;;;15.80;99.90;;;;;;5050931;28;19932;-80
2023/04/15 06:40:47;;;;;;;;;;;15.80;99.90;;;;;;5018974;28;19934;-78
2023/04/15 06:43:14;;;;;;;;;;;15.90;99.90;;;;;;5019344;28;19933;-82
2023/04/15 06:45:41;;;;;;;;;;;16.40;99.90;;;;;;5019987;28;19930;-81
2023/04/15 06:48:08;;;;;;;;;;;16.90;99.90;;;;;;5018802;28;19952;-80
2023/04/15 06:50:35;;;;;;;;;;;16.80;99.90;;;;;;5017823;28;19933;-82
2023/04/15 06:53:03;;;;;;;;;;;16.50;99.90;;;;;;5018765;28;19929;-81
2023/04/15 06:55:30;;;;;;;;;;;16.10;99.90;;;;;;5019100;28;19952;-81
2023/04/15 06:57:57;;;;;;;;;;;16.30;99.90;;;;;;5019984;28;19937;-81
2023/04/15 07:00:24;;;;;;;;;;;16.20;99.90;;;;;;5018761;28;19937;-80
2023/04/15 07:02:51;;;;;;;;;;;16.70;99.90;;;;;;5017742;28;19992;-80
2023/04/15 07:05:19;;;;;;;;;;;16.90;99.90;;;;;;5017592;28;20036;-81
2023/04/15 07:07:46;;;;;;;;;;;17.40;99.90;;;;;;5016944;28;19930;-80
2023/04/15 07:10:14;;;;;;;;;;;17.80;99.90;;;;;;5017393;28;19929;-80
2023/04/15 07:12:42;;;;;;;;;;;17.70;99.90;;;;;;5016206;28;19932;-81
2023/04/15 07:15:10;;;;;;;;;;;17.40;99.90;;;;;;5016311;28;20028;-81
2023/04/15 07:17:37;;;;;;;;;;;17.50;99.90;;;;;;5016934;28;19984;-80
2023/04/15 07:20:04;;;;;;;;;;;17.80;99.90;;;;;;5016690;28;19925;-81
2023/04/15 07:22:32;;;;;;;;;;;17.70;99.90;;;;;;5017420;28;20005;-81
2023/04/15 07:24:58;;;;;;;;;;;18.00;99.90;;;;;;5017462;28;19936;-80
2023/04/15 07:27:27;;;;;;;;;;;18.00;99.90;;;;;;5017137;28;19933;-82
2023/04/15 07:29:54;;;;;;;;;;;18.20;99.90;;;;;;5023044;28;20285;-81
2023/04/15 07:32:21;;;;;;;;;;;17.90;99.90;;;;;;5035689;28;19929;-78
2023/04/15 07:34:48;;;;;;;;;;;17.60;99.90;;;;;;5069230;28;19987;-81
2023/04/15 07:37:16;;;;;;;;;;;17.00;99.90;;;;;;5018433;28;19925;-81
2023/04/15 07:39:43;;;;;;;;;;;16.70;99.90;;;;;;5018437;28;19952;-82
2023/04/15 07:42:10;;;;;;;;;;;16.40;99.90;;;;;;5015949;28;19933;-81
2023/04/15 07:44:38;;;;;;;;;;;16.20;99.90;;;;;;5016745;28;20555;-79
2023/04/15 07:47:05;;;;;;;;;;;16.00;99.90;;;;;;5016320;28;19926;-82
2023/04/15 07:49:32;;;;;;;;;;;15.90;99.90;;;;;;5048501;28;19929;-79
2023/04/15 07:51:59;;;;;;;;;;;15.60;99.90;;;;;;5016580;28;19995;-81
2023/04/15 07:54:26;;;;;;;;;;;15.30;99.90;;;;;;5017003;28;20623;-80
2023/04/15 07:56:53;;;;;;;;;;;15.10;99.90;;;;;;5016598;28;20029;-81
2023/04/15 07:59:20;;;;;;;;;;;15.10;99.90;;;;;;5048931;28;19984;-81
2023/04/15 08:01:48;;;;;;;;;;;15.10;99.90;;;;;;5051073;28;19925;-80
2023/04/15 08:04:16;;;;;;;;;;;15.20;99.90;;;;;;5018527;28;19952;-81
2023/04/15 08:06:43;;;;;;;;;;;15.30;99.90;;;;;;5018395;28;19940;-80
2023/04/15 08:09:10;;;;;;;;;;;15.20;99.90;;;;;;5017690;28;19932;-80
2023/04/15 08:11:37;;;;;;;;;;;15.00;99.90;;;;;;5017699;28;19929;-80
2023/04/15 08:14:03;;;;;;;;;;;15.10;99.90;;;;;;5018814;28;19925;-80
2023/04/15 08:16:30;;;;;;;;;;;15.10;99.90;;;;;;5022289;28;19976;-80
2023/04/15 08:18:59;;;;;;;;;;;15.20;99.90;;;;;;5025039;28;19941;-80
2023/04/15 08:21:26;;;;;;;;;;;15.20;99.90;;;;;;5021308;28;20409;-79
2023/04/15 08:23:53;;;;;;;;;;;15.40;99.90;;;;;;5013404;28;19929;-81
2023/04/15 08:26:21;;;;;;;;;;;15.60;99.90;;;;;;5035881;28;20320;-81
2023/04/15 08:28:48;;;;;;;;;;;16.10;99.90;;;;;;5003130;28;19965;-81
2023/04/15 08:31:15;;;;;;;;;;;16.40;99.90;;;;;;5001962;28;20033;-81
2023/04/15 08:33:42;;;;;;;;;;;17.00;99.90;;;;;;5004152;28;19933;-80
2023/04/15 08:36:11;;;;;;;;;;;17.20;99.90;;;;;;5001971;28;19926;-80
2023/04/15 08:38:37;;;;;;;;;;;17.10;99.90;;;;;;5034506;28;19929;-79
2023/04/15 08:41:07;;;;;;;;;;;17.20;99.90;;;;;;4999680;28;19930;-81
2023/04/15 08:43:35;;;;;;;;;;;17.40;99.90;;;;;;5029089;28;19968;-81
2023/04/15 08:46:04;;;;;;;;;;;17.60;99.90;;;;;;5028398;28;19929;-81
2023/04/15 08:48:32;;;;;;;;;;;17.40;99.90;;;;;;5054586;28;19929;-81
2023/04/15 08:50:59;;;;;;;;;;;17.10;99.90;;;;;;5007551;28;19936;-82
2023/04/15 08:53:29;;;;;;;;;;;16.80;99.90;;;;;;5017993;28;19940;-81
2023/04/15 08:55:57;;;;;;;;;;;16.40;99.90;;;;;;5004236;28;19941;-82
2023/04/15 08:58:24;;;;;;;;;;;15.80;99.90;;;;;;5011501;28;19963;-81
2023/04/15 09:00:51;;;;;;;;;;;15.50;99.90;;;;;;5005563;28;19969;-82
2023/04/15 09:03:18;;;;;;;;;;;15.30;99.90;;;;;;5013727;28;19937;-83
2023/04/15 09:05:45;;;;;;;;;;;15.10;99.90;;;;;;5033482;28;19976;-82
2023/04/15 09:08:12;;;;;;;;;;;15.10;99.90;;;;;;5004801;28;19937;-82
2023/04/15 09:10:40;;;;;;;;;;;15.10;99.90;;;;;;4999321;28;19941;-82
2023/04/15 09:13:08;;;;;;;;;;;15.10;99.90;;;;;;5020818;28;19930;-83
2023/04/15 09:15:38;;;;;;;;;;;15.20;99.90;;;;;;5011392;28;19929;-82
2023/04/15 09:18:05;;;;;;;;;;;15.40;99.90;;;;;;5009683;28;19972;-82
2023/04/15 09:20:40;;;;;;;;;;;15.80;99.90;;;;;;5010330;28;19929;-83
2023/04/15 09:23:14;;;;;;;;;;;16.60;99.90;;;;;;5016755;28;19930;-82
2023/04/15 09:25:42;;;;;;;;;;;17.20;99.90;;;;;;5007939;28;19921;-82
2023/04/15 09:28:09;;;;;;;;;;;17.40;99.90;;;;;;5010030;28;19936;-82
2023/04/15 09:30:36;;;;;;;;;;;17.20;99.90;;;;;;5013932;28;19936;-81
2023/04/15 09:33:06;;;;;;;;;;;17.00;99.90;;;;;;5014873;28;19953;-83
2023/04/15 09:35:34;;;;;;;;;;;17.00;99.90;;;;;;5047367;28;19933;-82
2023/04/15 09:38:02;;;;;;;;;;;17.00;99.90;;;;;;5007343;28;19929;-80
2023/04/15 09:40:33;;;;;;;;;;;16.70;99.90;;;;;;5015779;28;20481;-81
2023/04/15 09:43:01;;;;;;;;;;;16.80;99.90;;;;;;5013005;28;19992;-82
2023/04/15 09:45:29;;;;;;;;;;;17.00;99.90;;;;;;5004415;28;19952;-82
2023/04/15 09:47:57;;;;;;;;;;;17.30;99.90;;;;;;5001305;28;19996;-82
2023/04/15 09:50:27;;;;;;;;;;;17.40;99.90;;;;;;5008959;28;19981;-82
2023/04/15 09:52:54;;;;;;;;;;;17.50;99.90;;;;;;5010011;28;19926;-83
2023/04/15 09:55:22;;;;;;;;;;;17.10;99.90;;;;;;5016497;28;19929;-81
2023/04/15 09:57:49;;;;;;;;;;;16.90;99.90;;;;;;5011031;28;19929;-82
2023/04/15 10:00:18;;;;;;;;;;;16.80;99.90;;;;;;5014386;28;19933;-81
2023/04/15 10:02:47;;;;;;;;;;;16.70;99.90;;;;;;5008987;28;19947;-82
2023/04/15 10:05:15;;;;;;;;;;;16.70;99.90;;;;;;5011733;28;19933;-82
2023/04/15 10:07:44;;;;;;;;;;;16.60;99.90;;;;;;5007131;28;19925;-79
2023/04/15 10:10:11;;;;;;;;;;;16.60;99.90;;;;;;5015083;28;19929;-80
2023/04/15 10:12:41;;;;;;;;;;;16.60;99.90;;;;;;5018422;28;20878;-81
2023/04/15 10:15:10;;;;;;;;;;;16.50;99.90;;;;;;5018828;28;19932;-81
2023/04/15 10:17:38;;;;;;;;;;;16.70;99.90;;;;;;5013025;28;19929;-81
2023/04/15 10:20:06;;;;;;;;;;;16.90;99.90;;;;;;5012800;28;19953;-80
2023/04/15 10:22:34;;;;;;;;;;;16.90;99.90;;;;;;5017327;28;19930;-80
2023/04/15 10:25:03;;;;;;;;;;;16.90;99.90;;;;;;5016987;28;19936;-81
2023/04/15 10:27:30;;;;;;;;;;;16.80;99.90;;;;;;5018624;28;20038;-82
2023/04/15 10:29:57;;;;;;;;;;;16.30;99.90;;;;;;5012708;28;20324;-80
2023/04/15 10:32:25;;;;;;;;;;;16.10;99.90;;;;;;5008378;28;20389;-82
2023/04/15 10:34:53;;;;;;;;;;;16.20;99.90;;;;;;5009662;28;19962;-81
2023/04/15 10:37:21;;;;;;;;;;;16.50;99.90;;;;;;5015667;28;20000;-82
2023/04/15 10:39:48;;;;;;;;;;;16.60;99.90;;;;;;5009591;28;19930;-80
2023/04/15 10:42:15;;;;;;;;;;;16.20;99.90;;;;;;5004282;28;19930;-82
2023/04/15 10:44:43;;;;;;;;;;;15.90;99.90;;;;;;5004522;28;19929;-81
2023/04/15 10:47:11;;;;;;;;;;;15.70;99.90;;;;;;5008992;28;19992;-80
2023/04/15 10:49:46;;;;;;;;;;;15.70;99.90;;;;;;5012318;28;19948;-81
2023/04/15 10:52:14;;;;;;;;;;;15.40;99.90;;;;;;5012645;28;19929;-80
2023/04/15 10:54:41;;;;;;;;;;;15.20;99.90;;;;;;5010331;28;20016;-81
2023/04/15 10:57:09;;;;;;;;;;;15.10;99.90;;;;;;5010454;28;19930;-82
2023/04/15 10:59:37;;;;;;;;;;;15.10;99.90;;;;;;5003897;28;19938;-82
2023/04/15 11:02:05;;;;;;;;;;;14.80;99.90;;;;;;5013995;28;19930;-82
2023/04/15 11:04:51;;;;;;;;;;;14.50;99.90;;;;;;5001346;28;19930;-81
2023/04/15 11:07:32;;;;;;;;;;;14.40;99.90;;;;;;5013215;28;19929;-81
2023/04/15 11:10:01;;;;;;;;;;;14.50;99.90;;;;;;5008107;28;20004;-81
2023/04/15 11:12:34;;;;;;;;;;;14.50;99.90;;;;;;5012927;28;19956;-81
2023/04/15 11:15:22;;;;;;;;;;;14.50;99.90;;;;;;5017912;28;19929;-81
2023/04/15 11:17:49;;;;;;;;;;;14.70;99.90;;;;;;5010711;28;19983;-81
2023/04/15 11:20:16;;;;;;;;;;;15.10;99.90;;;;;;5009808;28;19952;-81
2023/04/15 11:22:47;;;;;;;;;;;15.40;99.90;;;;;;5006646;28;19988;-83
2023/04/15 11:25:24;;;;;;;;;;;15.30;99.90;;;;;;5031211;28;19929;-83
2023/04/15 11:27:53;;;;;;;;;;;15.20;99.90;;;;;;5014331;28;20266;-84
2023/04/15 11:30:21;;;;;;;;;;;14.90;99.90;;;;;;5011437;28;20751;-82
2023/04/15 11:32:48;;;;;;;;;;;14.90;99.90;;;;;;5009992;28;19930;-82
2023/04/15 11:35:16;;;;;;;;;;;15.10;99.90;;;;;;5000678;28;19921;-83
2023/04/15 11:37:48;;;;;;;;;;;15.20;99.90;;;;;;5012315;28;20049;-83
2023/04/15 11:40:20;;;;;;;;;;;15.30;99.90;;;;;;5023331;28;20000;-80
2023/04/15 11:43:03;;;;;;;;;;;15.30;99.90;;;;;;5015950;28;19961;-80
2023/04/15 11:45:30;;;;;;;;;;;15.30;99.90;;;;;;5001845;28;19930;-80
2023/04/15 11:48:05;;;;;;;;;;;15.50;99.90;;;;;;5013552;28;19926;-80
2023/04/15 11:50:32;;;;;;;;;;;15.30;99.90;;;;;;5016187;28;19929;-82
2023/04/15 11:53:03;;;;;;;;;;;15.60;99.90;;;;;;5022101;28;19934;-83
2023/04/15 11:55:59;;;;;;;;;;;16.00;99.90;;;;;;5023322;28;19926;-83
2023/04/15 11:58:38;;;;;;;;;;;16.20;99.90;;;;;;5020315;28;19930;-81
2023/04/15 12:01:20;;;;;;;;;;;16.10;99.90;;;;;;5031181;28;19925;-82
2023/04/15 12:03:51;;;;;;;;;;;16.00;99.90;;;;;;5020999;28;19929;-79
2023/04/15 12:06:18;;;;;;;;;;;15.60;99.90;;;;;;5011254;28;19969;-79
2023/04/15 12:09:05;;;;;;;;;;;15.30;99.90;;;;;;5018102;28;19926;-79
2023/04/15 12:11:34;;;;;;;;;;;15.60;99.90;;;;;;5013889;28;20412;-77
2023/04/15 12:14:06;;;;;;;;;;;16.00;99.90;;;;;;5033122;28;19929;-78
2023/04/15 12:16:34;;;;;;;;;;;16.20;99.90;;;;;;5009015;28;19930;-78
2023/04/15 12:19:04;;;;;;;;;;;16.10;99.90;;;;;;5013128;28;19929;-79
2023/04/15 12:21:34;;;;;;;;;;;16.00;99.90;;;;;;5014761;28;19962;-79
2023/04/15 12:24:02;;;;;;;;;;;16.00;99.90;;;;;;5008350;28;20710;-79
2023/04/15 12:26:32;;;;;;;;;;;15.60;99.90;;;;;;5013546;28;20355;-78
2023/04/15 12:29:01;;;;;;;;;;;15.30;99.90;;;;;;5008692;28;19984;-77
2023/04/15 12:31:29;;;;;;;;;;;15.10;99.90;;;;;;5009786;28;20607;-78
2023/04/15 12:33:57;;;;;;;;;;;14.90;99.90;;;;;;5022170;28;19925;-80
2023/04/15 12:36:24;;;;;;;;;;;14.90;99.90;;;;;;5025876;28;19964;-84
2023/04/15 12:38:51;;;;;;;;;;;15.00;99.90;;;;;;5026527;28;19929;-82
2023/04/15 12:41:18;;;;;;;;;;;15.20;99.90;;;;;;5026557;28;19925;-82
2023/04/15 12:43:45;;;;;;;;;;;15.40;99.90;;;;;;5023474;28;19929;-82
2023/04/15 12:46:14;;;;;;;;;;;15.20;99.90;;;;;;5023617;28;20177;-82
2023/04/15 12:48:50;;;;;;;;;;;14.80;99.90;;;;;;5023717;28;19988;-82
2023/04/15 12:51:17;;;;;;;;;;;14.60;99.90;;;;;;5022177;28;19926;-86
2023/04/15 12:53:44;;;;;;;;;;;14.30;99.90;;;;;;5030664;28;20282;-83
2023/04/15 12:56:11;;;;;;;;;;;14.20;99.90;;;;;;5016312;28;19929;-81
2023/04/15 12:58:38;;;;;;;;;;;14.10;99.90;;;;;;5022870;28;19929;-82
2023/04/15 13:01:05;;;;;;;;;;;14.20;99.90;;;;;;5011680;28;19926;-83
2023/04/15 13:03:33;;;;;;;;;;;14.20;99.90;;;;;;5021355;28;20130;-82
2023/04/15 13:06:03;;;;;;;;;;;14.20;99.90;;;;;;5015712;28;20477;-83
2023/04/15 13:08:30;;;;;;;;;;;14.20;99.90;;;;;;5033568;28;19936;-81
2023/04/15 13:10:57;;;;;;;;;;;14.40;99.90;;;;;;5022291;28;19929;-81
2023/04/15 13:13:24;;;;;;;;;;;14.50;99.90;;;;;;5017555;28;20001;-81
2023/04/15 13:15:51;;;;;;;;;;;14.60;99.90;;;;;;5020551;28;20669;-81
2023/04/15 13:18:18;;;;;;;;;;;14.40;99.90;;;;;;5015082;28;19970;-84
2023/04/15 13:20:45;;;;;;;;;;;14.20;99.90;;;;;;5024626;28;19925;-83
2023/04/15 13:23:14;;;;;;;;;;;13.90;99.90;;;;;;5021597;28;19937;-81
2023/04/15 13:25:41;;;;;;;;;;;13.60;99.90;;;;;;5019524;28;19975;-81
2023/04/15 13:28:08;;;;;;;;;;;13.40;99.90;;;;;;5016300;28;19929;-83
2023/04/15 13:30:37;;;;;;;;;;;13.30;99.90;;;;;;5016340;28;19926;-83
2023/04/15 13:33:04;;;;;;;;;;;13.40;99.90;;;;;;5031790;28;19925;-82
2023/04/15 13:35:32;;;;;;;;;;;13.30;99.90;;;;;;5014992;28;19929;-83
2023/04/15 13:37:59;;;;;;;;;;;13.40;99.90;;;;;;5023935;28;19994;-82
2023/04/15 13:40:28;;;;;;;;;;;13.30;99.90;;;;;;5025255;28;19935;-83
2023/04/15 13:42:56;;;;;;;;;;;13.40;99.90;;;;;;5017387;28;19926;-80
2023/04/15 13:45:23;;;;;;;;;;;13.30;99.90;;;;;;5001273;28;19944;-81
2023/04/15 13:47:50;;;;;;;;;;;13.30;99.90;;;;;;5001122;28;19922;-80
2023/04/15 13:50:19;;;;;;;;;;;13.30;99.90;;;;;;5010073;28;19951;-81
2023/04/15 13:52:47;;;;;;;;;;;13.30;99.90;;;;;;5021699;28;20020;-80
2023/04/15 13:55:13;;;;;;;;;;;13.30;99.90;;;;;;5019099;28;19971;-83
2023/04/15 13:57:42;;;;;;;;;;;13.30;99.90;;;;;;5018181;28;19935;-79
2023/04/15 14:00:11;;;;;;;;;;;13.30;99.90;;;;;;5019689;28;19926;-83
2023/04/15 14:02:38;;;;;;;;;;;13.30;99.90;;;;;;5022698;28;19944;-84
2023/04/15 14:05:05;;;;;;;;;;;13.20;99.90;;;;;;5015667;28;19932;-84
2023/04/15 14:07:32;;;;;;;;;;;13.10;99.90;;;;;;5016686;28;20256;-83
2023/04/15 14:10:00;;;;;;;;;;;13.10;99.90;;;;;;5014633;28;19937;-83
2023/04/15 14:12:27;;;;;;;;;;;13.10;99.90;;;;;;5009689;28;19926;-83
2023/04/15 14:14:56;;;;;;;;;;;13.10;99.90;;;;;;5018096;28;19950;-83
2023/04/15 14:17:30;;;;;;;;;;;12.90;99.90;;;;;;5016648;28;19925;-83
2023/04/15 14:19:57;;;;;;;;;;;12.80;99.90;;;;;;5019743;28;20333;-83
2023/04/15 14:22:24;;;;;;;;;;;12.80;99.90;;;;;;5013660;28;19933;-84
2023/04/15 14:24:52;;;;;;;;;;;12.90;99.90;;;;;;5021018;28;19993;-84
2023/04/15 14:27:19;;;;;;;;;;;12.80;99.90;;;;;;5023519;28;19925;-83
2023/04/15 14:29:46;;;;;;;;;;;12.70;99.90;;;;;;5025387;28;19933;-84